Anadyr', Russia

7:30 PM ANAT on March 06, 2015 (GMT +1200)
Ugolny | Change Station
CLOSE
Current Station
Airport
Location: Anadyr',
Elevation: 203 ft
Nearby Weather Stations

Elev 203 ft 64.78 °N, 177.57 °E | Updated 30 minutes ago

Overcast
Overcast
3 °F
Feels Like -11 °F
N
9
Wind Variable Wind from North

Today
High -- | Low -- °F
--% Chance of Precip.
Yesterday
High -- | Low -- °F
Precip. -- in
7:04 AM 5:39 PM
Full, 100% visible
Pressure 29.83 in
Visibility 6.2 miles
Clouds Overcast 8000 ft
Windchill -11 °F
Dew Point 0 °F
Humidity 85%
Rainfall 0.00 in
Snow Depth Not available.
UV 0 out of 12
Pollen Not available.
Air Quality Not available.
Flu Activity Not available.
METAR UHMA 060700Z 01004MPS 9999 OVC080 M16/M18 Q1010 NOSIG RMK QFE754/1005

More Conditions Fewer Conditions

Pressure 29.83 in
Visibility 6.2 miles
Clouds Overcast 8000 ft
Windchill -11 °F
Dew Point 0 °F
Humidity 85%
Rainfall 0.00 in
Snow Depth Not available.
UV 0 out of 12
Pollen Not available.
Air Quality Not available.
Flu Activity Not available.
METAR UHMA 060700Z 01004MPS 9999 OVC080 M16/M18 Q1010 NOSIG RMK QFE754/1005

More Conditions Fewer Conditions

10-Day Weather Forecast

Almanac

Astronomy

Mar. 06, 2015 Rise Set
Actual Time
Civil Twilight
Nautical Twilight
Astronomical Twilight
Moon
Length of Visible Light
Length of Day
Tomorrow will be .
, % of the Moon is Illuminated

Today's Extremes

Country Highs Country Lows

Community

WunderPhotos

Upload Photos

1,803,199 photos uploaded!

WunderBlogs® & News

Nearby

Air Quality

  Air Quality AQ Index Pollutant
Not available.

Snow Depth

Station Depth Elevation

Earthquake Activity

City Distance Mag. Time & Date
Minimum magnitude displayed is 2.5.

Coastal Water Temperatures

Place Temperature

Nearby Weather Stations